sensor_id;sensor_type;location;lat;lon;timestamp;pressure;altitude;pressure_sealevel;temperature;humidity
21361;BME280;10839;43.206;23.550;2023-05-20T00:00:33;97528.56;;;15.21;100.00
21361;BME280;10839;43.206;23.550;2023-05-20T00:02:59;97526.03;;;15.26;100.00
21361;BME280;10839;43.206;23.550;2023-05-20T00:05:25;97532.31;;;15.20;100.00
21361;BME280;10839;43.206;23.550;2023-05-20T00:07:51;97535.69;;;15.09;100.00
21361;BME280;10839;43.206;23.550;2023-05-20T00:10:17;97541.97;;;15.03;100.00
21361;BME280;10839;43.206;23.550;2023-05-20T00:12:43;97530.31;;;14.96;100.00
21361;BME280;10839;43.206;23.550;2023-05-20T00:15:08;97520.34;;;14.90;100.00
21361;BME280;10839;43.206;23.550;2023-05-20T00:17:36;97518.63;;;14.96;100.00
21361;BME280;10839;43.206;23.550;2023-05-20T00:20:03;97511.16;;;14.91;100.00
21361;BME280;10839;43.206;23.550;2023-05-20T00:22:30;97518.03;;;15.00;100.00
21361;BME280;10839;43.206;23.550;2023-05-20T00:24:56;97513.22;;;14.96;100.00
21361;BME280;10839;43.206;23.550;2023-05-20T00:27:22;97508.41;;;14.98;100.00
21361;BME280;10839;43.206;23.550;2023-05-20T00:29:47;97500.69;;;15.01;100.00
21361;BME280;10839;43.206;23.550;2023-05-20T00:32:13;97505.88;;;15.09;100.00
21361;BME280;10839;43.206;23.550;2023-05-20T00:34:39;97504.63;;;15.12;100.00
21361;BME280;10839;43.206;23.550;2023-05-20T00:37:05;97506.13;;;15.01;100.00
21361;BME280;10839;43.206;23.550;2023-05-20T00:39:30;97505.63;;;15.17;100.00
21361;BME280;10839;43.206;23.550;2023-05-20T00:41:56;97511.03;;;15.17;100.00
21361;BME280;10839;43.206;23.550;2023-05-20T00:44:28;97510.63;;;15.20;100.00
21361;BME280;10839;43.206;23.550;2023-05-20T00:46:54;97508.47;;;15.35;100.00
21361;BME280;10839;43.206;23.550;2023-05-20T00:49:20;97501.81;;;15.31;100.00
21361;BME280;10839;43.206;23.550;2023-05-20T00:51:48;97501.84;;;15.25;100.00
21361;BME280;10839;43.206;23.550;2023-05-20T00:54:14;97504.72;;;15.36;100.00
21361;BME280;10839;43.206;23.550;2023-05-20T00:56:40;97499.75;;;15.20;100.00
21361;BME280;10839;43.206;23.550;2023-05-20T00:59:06;97493.09;;;15.23;100.00
21361;BME280;10839;43.206;23.550;2023-05-20T01:01:33;97498.56;;;15.16;100.00
21361;BME280;10839;43.206;23.550;2023-05-20T01:03:59;97503.97;;;15.16;100.00
21361;BME280;10839;43.206;23.550;2023-05-20T01:06:25;97499.44;;;14.97;100.00
21361;BME280;10839;43.206;23.550;2023-05-20T01:08:53;97507.84;;;14.83;100.00
21361;BME280;10839;43.206;23.550;2023-05-20T01:11:33;97499.94;;;14.81;100.00
21361;BME280;10839;43.206;23.550;2023-05-20T01:14:04;97506.97;;;14.89;100.00
21361;BME280;10839;43.206;23.550;2023-05-20T01:16:31;97514.06;;;14.96;100.00
21361;BME280;10839;43.206;23.550;2023-05-20T01:18:58;97513.63;;;14.99;100.00
21361;BME280;10839;43.206;23.550;2023-05-20T01:21:29;97509.03;;;15.00;100.00
21361;BME280;10839;43.206;23.550;2023-05-20T01:23:57;97507.81;;;14.89;100.00
21361;BME280;10839;43.206;23.550;2023-05-20T01:26:22;97506.94;;;15.08;100.00
21361;BME280;10839;43.206;23.550;2023-05-20T01:28:53;97504.84;;;15.10;100.00
21361;BME280;10839;43.206;23.550;2023-05-20T01:31:30;97499.72;;;15.33;100.00
21361;BME280;10839;43.206;23.550;2023-05-20T01:33:58;97496.03;;;15.21;100.00
21361;BME280;10839;43.206;23.550;2023-05-20T01:36:25;97494.78;;;15.17;100.00
21361;BME280;10839;43.206;23.550;2023-05-20T01:38:53;97496.53;;;14.99;100.00
21361;BME280;10839;43.206;23.550;2023-05-20T01:41:22;97491.13;;;14.92;100.00
21361;BME280;10839;43.206;23.550;2023-05-20T01:43:49;97494.06;;;14.84;100.00
21361;BME280;10839;43.206;23.550;2023-05-20T01:46:15;97489.91;;;14.88;100.00
21361;BME280;10839;43.206;23.550;2023-05-20T01:48:41;97501.78;;;14.87;100.00
21361;BME280;10839;43.206;23.550;2023-05-20T01:51:07;97498.22;;;14.93;100.00
21361;BME280;10839;43.206;23.550;2023-05-20T01:53:33;97494.91;;;14.91;100.00
21361;BME280;10839;43.206;23.550;2023-05-20T01:55:59;97498.69;;;14.84;100.00
21361;BME280;10839;43.206;23.550;2023-05-20T01:58:25;97499.06;;;14.87;100.00
21361;BME280;10839;43.206;23.550;2023-05-20T02:00:51;97491.31;;;14.97;100.00
21361;BME280;10839;43.206;23.550;2023-05-20T02:03:17;97499.47;;;14.91;100.00
21361;BME280;10839;43.206;23.550;2023-05-20T02:05:42;97502.84;;;14.86;100.00
21361;BME280;10839;43.206;23.550;2023-05-20T02:08:08;97488.22;;;14.87;100.00
21361;BME280;10839;43.206;23.550;2023-05-20T02:10:34;97496.19;;;14.69;100.00
21361;BME280;10839;43.206;23.550;2023-05-20T02:13:00;97489.56;;;14.59;100.00
21361;BME280;10839;43.206;23.550;2023-05-20T02:15:26;97484.53;;;14.62;100.00
21361;BME280;10839;43.206;23.550;2023-05-20T02:17:52;97477.88;;;14.65;100.00
21361;BME280;10839;43.206;23.550;2023-05-20T02:20:18;97482.91;;;14.48;100.00
21361;BME280;10839;43.206;23.550;2023-05-20T02:22:44;97478.34;;;14.29;100.00
21361;BME280;10839;43.206;23.550;2023-05-20T02:25:10;97488.34;;;14.48;100.00
21361;BME280;10839;43.206;23.550;2023-05-20T02:27:35;97490.41;;;14.46;100.00
21361;BME280;10839;43.206;23.550;2023-05-20T02:30:01;97492.09;;;14.47;100.00
21361;BME280;10839;43.206;23.550;2023-05-20T02:32:27;97492.91;;;14.54;100.00
21361;BME280;10839;43.206;23.550;2023-05-20T02:34:54;97498.72;;;14.64;100.00
21361;BME280;10839;43.206;23.550;2023-05-20T02:37:20;97502.66;;;14.68;100.00
21361;BME280;10839;43.206;23.550;2023-05-20T02:39:46;97492.50;;;14.44;100.00
21361;BME280;10839;43.206;23.550;2023-05-20T02:42:13;97497.91;;;14.44;100.00
21361;BME280;10839;43.206;23.550;2023-05-20T02:44:39;97493.97;;;14.40;100.00
21361;BME280;10839;43.206;23.550;2023-05-20T02:47:05;97501.28;;;14.27;100.00
21361;BME280;10839;43.206;23.550;2023-05-20T02:49:31;97500.44;;;14.26;100.00
21361;BME280;10839;43.206;23.550;2023-05-20T02:51:57;97501.69;;;14.17;100.00
21361;BME280;10839;43.206;23.550;2023-05-20T02:54:24;97509.19;;;14.28;100.00
21361;BME280;10839;43.206;23.550;2023-05-20T02:56:50;97500.19;;;14.21;100.00
21361;BME280;10839;43.206;23.550;2023-05-20T02:59:16;97504.78;;;14.07;100.00
21361;BME280;10839;43.206;23.550;2023-05-20T03:01:42;97505.41;;;14.03;100.00
21361;BME280;10839;43.206;23.550;2023-05-20T03:04:08;97513.31;;;14.18;100.00
21361;BME280;10839;43.206;23.550;2023-05-20T03:06:33;97513.75;;;14.34;100.00
21361;BME280;10839;43.206;23.550;2023-05-20T03:08:59;97508.13;;;14.29;100.00
21361;BME280;10839;43.206;23.550;2023-05-20T03:11:26;97514.78;;;14.20;100.00
21361;BME280;10839;43.206;23.550;2023-05-20T03:13:51;97508.75;;;14.25;100.00
21361;BME280;10839;43.206;23.550;2023-05-20T03:16:17;97529.34;;;14.19;100.00
21361;BME280;10839;43.206;23.550;2023-05-20T03:18:44;97527.88;;;14.62;100.00
21361;BME280;10839;43.206;23.550;2023-05-20T03:21:12;97539.09;;;14.85;100.00
21361;BME280;10839;43.206;23.550;2023-05-20T03:23:38;97534.63;;;15.17;100.00
21361;BME280;10839;43.206;23.550;2023-05-20T03:26:04;97550.19;;;15.41;100.00
21361;BME280;10839;43.206;23.550;2023-05-20T03:28:33;97560.53;;;15.57;100.00
21361;BME280;10839;43.206;23.550;2023-05-20T03:30:59;97551.16;;;15.60;100.00
21361;BME280;10839;43.206;23.550;2023-05-20T03:33:29;97560.50;;;16.32;95.41
21361;BME280;10839;43.206;23.550;2023-05-20T03:35:56;97547.00;;;16.93;91.94
21361;BME280;10839;43.206;23.550;2023-05-20T03:38:23;97539.41;;;18.27;85.21
21361;BME280;10839;43.206;23.550;2023-05-20T03:40:48;97537.13;;;19.11;79.35
21361;BME280;10839;43.206;23.550;2023-05-20T03:43:15;97536.84;;;19.24;77.87
21361;BME280;10839;43.206;23.550;2023-05-20T03:45:41;97538.50;;;19.25;76.38
21361;BME280;10839;43.206;23.550;2023-05-20T03:48:06;97535.19;;;19.23;75.08
21361;BME280;10839;43.206;23.550;2023-05-20T03:50:34;97531.78;;;19.04;74.74
21361;BME280;10839;43.206;23.550;2023-05-20T03:53:00;97534.63;;;18.63;77.75
21361;BME280;10839;43.206;23.550;2023-05-20T03:55:31;97538.53;;;18.56;76.81
21361;BME280;10839;43.206;23.550;2023-05-20T03:57:59;97532.25;;;19.01;73.57
21361;BME280;10839;43.206;23.550;2023-05-20T04:00:26;97527.03;;;19.35;72.80
21361;BME280;10839;43.206;23.550;2023-05-20T04:02:52;97528.25;;;19.55;70.69
21361;BME280;10839;43.206;23.550;2023-05-20T04:05:18;97538.69;;;19.58;69.11
21361;BME280;10839;43.206;23.550;2023-05-20T04:07:46;97541.78;;;20.63;65.54
21361;BME280;10839;43.206;23.550;2023-05-20T04:10:12;97547.88;;;21.03;62.97
21361;BME280;10839;43.206;23.550;2023-05-20T04:12:38;97539.78;;;23.16;56.55
21361;BME280;10839;43.206;23.550;2023-05-20T04:15:06;97540.00;;;23.46;56.55
21361;BME280;10839;43.206;23.550;2023-05-20T04:17:40;97543.63;;;24.23;55.45
21361;BME280;10839;43.206;23.550;2023-05-20T04:20:07;97549.16;;;24.43;54.68
21361;BME280;10839;43.206;23.550;2023-05-20T04:22:35;97548.09;;;24.69;53.84
21361;BME280;10839;43.206;23.550;2023-05-20T04:25:01;97557.97;;;25.46;49.47
21361;BME280;10839;43.206;23.550;2023-05-20T04:27:29;97550.28;;;25.17;49.06
21361;BME280;10839;43.206;23.550;2023-05-20T04:29:55;97554.09;;;25.57;47.64
21361;BME280;10839;43.206;23.550;2023-05-20T04:32:24;97556.81;;;25.72;47.86
21361;BME280;10839;43.206;23.550;2023-05-20T04:34:52;97564.03;;;25.48;48.17
21361;BME280;10839;43.206;23.550;2023-05-20T04:37:20;97539.88;;;26.42;45.94
21361;BME280;10839;43.206;23.550;2023-05-20T04:39:47;97535.63;;;26.21;46.86
21361;BME280;10839;43.206;23.550;2023-05-20T04:42:15;97540.53;;;26.29;45.85
21361;BME280;10839;43.206;23.550;2023-05-20T04:44:43;97537.41;;;25.92;46.11
21361;BME280;10839;43.206;23.550;2023-05-20T04:47:10;97521.09;;;26.44;44.99
21361;BME280;10839;43.206;23.550;2023-05-20T04:49:37;97538.44;;;26.11;45.05
21361;BME280;10839;43.206;23.550;2023-05-20T04:52:06;97521.81;;;26.98;43.32
21361;BME280;10839;43.206;23.550;2023-05-20T04:54:32;97531.44;;;27.34;42.65
21361;BME280;10839;43.206;23.550;2023-05-20T04:56:58;97536.03;;;28.52;40.44
21361;BME280;10839;43.206;23.550;2023-05-20T04:59:24;97538.13;;;28.23;40.47
21361;BME280;10839;43.206;23.550;2023-05-20T05:01:50;97538.91;;;28.23;40.76
21361;BME280;10839;43.206;23.550;2023-05-20T05:04:16;97539.94;;;29.02;39.94
21361;BME280;10839;43.206;23.550;2023-05-20T05:06:42;97531.59;;;29.20;38.49
21361;BME280;10839;43.206;23.550;2023-05-20T05:09:09;97533.19;;;28.57;39.42
21361;BME280;10839;43.206;23.550;2023-05-20T05:11:37;97527.94;;;28.74;38.90
21361;BME280;10839;43.206;23.550;2023-05-20T05:14:04;97528.34;;;29.45;38.94
21361;BME280;10839;43.206;23.550;2023-05-20T05:16:30;97530.41;;;30.35;37.09
21361;BME280;10839;43.206;23.550;2023-05-20T05:18:56;97518.84;;;30.55;37.24
21361;BME280;10839;43.206;23.550;2023-05-20T05:21:22;97527.09;;;32.43;35.42
21361;BME280;10839;43.206;23.550;2023-05-20T05:23:48;97525.44;;;31.86;36.00
21361;BME280;10839;43.206;23.550;2023-05-20T05:26:14;97518.13;;;30.85;38.04
21361;BME280;10839;43.206;23.550;2023-05-20T05:28:41;97527.38;;;30.94;37.81
21361;BME280;10839;43.206;23.550;2023-05-20T05:31:08;97527.06;;;30.60;38.45
21361;BME280;10839;43.206;23.550;2023-05-20T05:33:34;97518.63;;;30.51;38.63
21361;BME280;10839;43.206;23.550;2023-05-20T05:36:01;97521.28;;;31.14;37.57
21361;BME280;10839;43.206;23.550;2023-05-20T05:38:28;97517.44;;;31.93;35.85
21361;BME280;10839;43.206;23.550;2023-05-20T05:40:54;97507.59;;;31.26;35.90
21361;BME280;10839;43.206;23.550;2023-05-20T05:43:20;97507.06;;;31.46;34.55
21361;BME280;10839;43.206;23.550;2023-05-20T05:45:47;97502.81;;;32.87;33.72
21361;BME280;10839;43.206;23.550;2023-05-20T05:48:13;97503.03;;;32.90;33.72
21361;BME280;10839;43.206;23.550;2023-05-20T05:50:43;97509.53;;;32.86;32.69
21361;BME280;10839;43.206;23.550;2023-05-20T05:53:11;97518.25;;;32.93;33.34
21361;BME280;10839;43.206;23.550;2023-05-20T05:55:39;97527.44;;;31.55;35.40
21361;BME280;10839;43.206;23.550;2023-05-20T05:58:05;97535.38;;;31.70;35.55
21361;BME280;10839;43.206;23.550;2023-05-20T06:00:31;97531.94;;;32.29;34.93
21361;BME280;10839;43.206;23.550;2023-05-20T06:02:57;97533.56;;;32.13;35.08
21361;BME280;10839;43.206;23.550;2023-05-20T06:05:32;97536.78;;;30.22;36.89
21361;BME280;10839;43.206;23.550;2023-05-20T06:07:58;97543.84;;;29.01;39.25
21361;BME280;10839;43.206;23.550;2023-05-20T06:10:25;97543.13;;;29.27;39.67
21361;BME280;10839;43.206;23.550;2023-05-20T06:12:50;97553.16;;;30.86;37.10
21361;BME280;10839;43.206;23.550;2023-05-20T06:15:17;97561.41;;;29.28;39.77
21361;BME280;10839;43.206;23.550;2023-05-20T06:17:44;97573.22;;;30.06;39.05
21361;BME280;10839;43.206;23.550;2023-05-20T06:20:10;97570.34;;;28.56;42.04
21361;BME280;10839;43.206;23.550;2023-05-20T06:22:36;97571.59;;;30.19;38.59
21361;BME280;10839;43.206;23.550;2023-05-20T06:25:02;97570.13;;;29.22;40.28
21361;BME280;10839;43.206;23.550;2023-05-20T06:27:31;97567.03;;;28.91;40.37
21361;BME280;10839;43.206;23.550;2023-05-20T06:29:57;97554.00;;;28.73;40.89
21361;BME280;10839;43.206;23.550;2023-05-20T06:32:23;97568.91;;;30.14;38.42
21361;BME280;10839;43.206;23.550;2023-05-20T06:34:50;97560.88;;;29.72;39.00
21361;BME280;10839;43.206;23.550;2023-05-20T06:37:16;97558.94;;;31.20;36.66
21361;BME280;10839;43.206;23.550;2023-05-20T06:39:42;97544.72;;;30.99;36.85
21361;BME280;10839;43.206;23.550;2023-05-20T06:42:08;97547.81;;;30.98;35.70
21361;BME280;10839;43.206;23.550;2023-05-20T06:44:35;97554.16;;;31.65;35.42
21361;BME280;10839;43.206;23.550;2023-05-20T06:47:35;97545.16;;;31.68;34.58
21361;BME280;10839;43.206;23.550;2023-05-20T06:50:01;97534.81;;;31.60;35.33
21361;BME280;10839;43.206;23.550;2023-05-20T06:52:28;97538.69;;;31.28;34.97
21361;BME280;10839;43.206;23.550;2023-05-20T06:54:54;97526.31;;;31.95;33.93
21361;BME280;10839;43.206;23.550;2023-05-20T06:57:21;97534.91;;;31.77;33.98
21361;BME280;10839;43.206;23.550;2023-05-20T06:59:47;97531.63;;;32.22;33.38
21361;BME280;10839;43.206;23.550;2023-05-20T07:02:14;97529.41;;;32.59;33.29
21361;BME280;10839;43.206;23.550;2023-05-20T07:04:40;97536.06;;;32.32;33.59
21361;BME280;10839;43.206;23.550;2023-05-20T07:07:06;97543.16;;;31.90;33.29
21361;BME280;10839;43.206;23.550;2023-05-20T07:09:31;97547.22;;;32.32;33.05
21361;BME280;10839;43.206;23.550;2023-05-20T07:11:57;97545.97;;;31.90;33.43
21361;BME280;10839;43.206;23.550;2023-05-20T07:14:23;97539.25;;;32.00;32.95
21361;BME280;10839;43.206;23.550;2023-05-20T07:16:49;97534.34;;;31.66;32.88
21361;BME280;10839;43.206;23.550;2023-05-20T07:19:15;97528.25;;;31.86;32.44
21361;BME280;10839;43.206;23.550;2023-05-20T07:21:41;97526.22;;;31.78;33.24
21361;BME280;10839;43.206;23.550;2023-05-20T07:24:13;97529.00;;;32.17;33.02
21361;BME280;10839;43.206;23.550;2023-05-20T07:26:39;97523.06;;;30.88;33.87
21361;BME280;10839;43.206;23.550;2023-05-20T07:29:06;97528.16;;;29.55;36.09
21361;BME280;10839;43.206;23.550;2023-05-20T07:31:32;97523.63;;;30.41;34.67
21361;BME280;10839;43.206;23.550;2023-05-20T07:33:58;97531.25;;;30.22;35.68
21361;BME280;10839;43.206;23.550;2023-05-20T07:36:28;97524.44;;;28.50;37.68
21361;BME280;10839;43.206;23.550;2023-05-20T07:38:56;97533.31;;;28.84;37.40
21361;BME280;10839;43.206;23.550;2023-05-20T07:41:22;97531.56;;;28.88;37.51
21361;BME280;10839;43.206;23.550;2023-05-20T07:43:49;97517.63;;;28.93;37.56
21361;BME280;10839;43.206;23.550;2023-05-20T07:46:14;97524.59;;;28.58;37.93
21361;BME280;10839;43.206;23.550;2023-05-20T07:48:41;97515.50;;;28.16;39.82
21361;BME280;10839;43.206;23.550;2023-05-20T07:51:07;97522.03;;;29.85;37.26
21361;BME280;10839;43.206;23.550;2023-05-20T07:53:33;97510.94;;;27.83;39.62
21361;BME280;10839;43.206;23.550;2023-05-20T07:55:58;97509.28;;;28.05;40.28
21361;BME280;10839;43.206;23.550;2023-05-20T07:58:27;97511.53;;;27.32;41.93
21361;BME280;10839;43.206;23.550;2023-05-20T08:00:53;97509.19;;;25.46;45.48
21361;BME280;10839;43.206;23.550;2023-05-20T08:03:19;97504.00;;;27.09;42.37
21361;BME280;10839;43.206;23.550;2023-05-20T08:05:57;97505.09;;;29.14;38.85
21361;BME280;10839;43.206;23.550;2023-05-20T08:08:24;97504.47;;;27.68;41.22
21361;BME280;10839;43.206;23.550;2023-05-20T08:10:58;97502.34;;;28.08;41.11
21361;BME280;10839;43.206;23.550;2023-05-20T08:13:27;97511.81;;;28.95;39.15
21361;BME280;10839;43.206;23.550;2023-05-20T08:15:53;97507.09;;;27.36;41.67
21361;BME280;10839;43.206;23.550;2023-05-20T08:18:19;97500.72;;;27.59;41.43
21361;BME280;10839;43.206;23.550;2023-05-20T08:20:46;97510.72;;;28.77;39.91
21361;BME280;10839;43.206;23.550;2023-05-20T08:23:12;97511.97;;;25.41;45.48
21361;BME280;10839;43.206;23.550;2023-05-20T08:25:37;97512.25;;;24.14;49.80
21361;BME280;10839;43.206;23.550;2023-05-20T08:28:05;97500.38;;;25.44;47.18
21361;BME280;10839;43.206;23.550;2023-05-20T08:30:34;97509.34;;;27.01;43.97
21361;BME280;10839;43.206;23.550;2023-05-20T08:33:00;97510.13;;;28.06;42.07
21361;BME280;10839;43.206;23.550;2023-05-20T08:35:28;97503.28;;;29.37;40.19
21361;BME280;10839;43.206;23.550;2023-05-20T08:37:54;97504.84;;;29.97;37.87
21361;BME280;10839;43.206;23.550;2023-05-20T08:40:21;97502.34;;;29.14;38.31
21361;BME280;10839;43.206;23.550;2023-05-20T08:42:48;97507.53;;;27.91;41.83
21361;BME280;10839;43.206;23.550;2023-05-20T08:45:19;97501.25;;;27.09;43.17
21361;BME280;10839;43.206;23.550;2023-05-20T08:47:47;97506.22;;;26.45;44.18
21361;BME280;10839;43.206;23.550;2023-05-20T08:50:15;97508.38;;;27.44;42.63
21361;BME280;10839;43.206;23.550;2023-05-20T08:52:44;97504.63;;;29.07;39.64
21361;BME280;10839;43.206;23.550;2023-05-20T08:55:17;97499.50;;;28.50;41.36
21361;BME280;10839;43.206;23.550;2023-05-20T08:57:50;97502.66;;;29.40;39.63
21361;BME280;10839;43.206;23.550;2023-05-20T09:00:17;97488.22;;;28.28;42.18
21361;BME280;10839;43.206;23.550;2023-05-20T09:02:46;97492.53;;;28.71;41.12
21361;BME280;10839;43.206;23.550;2023-05-20T09:05:12;97496.16;;;28.85;41.75
21361;BME280;10839;43.206;23.550;2023-05-20T09:07:38;97491.16;;;29.19;40.96
21361;BME280;10839;43.206;23.550;2023-05-20T09:10:04;97480.25;;;28.58;41.84
21361;BME280;10839;43.206;23.550;2023-05-20T09:12:30;97487.00;;;26.97;44.14
21361;BME280;10839;43.206;23.550;2023-05-20T09:14:56;97485.44;;;26.53;45.39
21361;BME280;10839;43.206;23.550;2023-05-20T09:17:22;97477.59;;;26.98;44.76
21361;BME280;10839;43.206;23.550;2023-05-20T09:19:49;97477.22;;;26.04;47.12
21361;BME280;10839;43.206;23.550;2023-05-20T09:22:27;97473.97;;;25.92;47.39
21361;BME280;10839;43.206;23.550;2023-05-20T09:24:54;97478.88;;;26.43;46.28
21361;BME280;10839;43.206;23.550;2023-05-20T09:27:20;97474.34;;;27.67;44.55
21361;BME280;10839;43.206;23.550;2023-05-20T09:29:47;97469.91;;;27.47;44.08
21361;BME280;10839;43.206;23.550;2023-05-20T09:32:13;97470.16;;;28.49;42.43
21361;BME280;10839;43.206;23.550;2023-05-20T09:34:39;97466.56;;;28.30;42.36
21361;BME280;10839;43.206;23.550;2023-05-20T09:37:10;97465.47;;;29.27;41.35
21361;BME280;10839;43.206;23.550;2023-05-20T09:39:54;97466.91;;;29.11;41.07
21361;BME280;10839;43.206;23.550;2023-05-20T09:42:24;97463.72;;;28.35;41.53
21361;BME280;10839;43.206;23.550;2023-05-20T09:44:52;97462.44;;;28.09;41.86
21361;BME280;10839;43.206;23.550;2023-05-20T09:47:22;97449.06;;;28.16;42.89
21361;BME280;10839;43.206;23.550;2023-05-20T09:49:51;97447.56;;;29.06;40.78
21361;BME280;10839;43.206;23.550;2023-05-20T09:52:18;97452.81;;;28.25;41.47
21361;BME280;10839;43.206;23.550;2023-05-20T09:54:44;97454.00;;;26.82;43.16
21361;BME280;10839;43.206;23.550;2023-05-20T09:57:11;97443.47;;;26.84;44.26
21361;BME280;10839;43.206;23.550;2023-05-20T09:59:37;97455.19;;;27.28;44.38
21361;BME280;10839;43.206;23.550;2023-05-20T10:02:05;97443.06;;;27.24;44.27
21361;BME280;10839;43.206;23.550;2023-05-20T10:04:33;97450.69;;;27.80;43.11
21361;BME280;10839;43.206;23.550;2023-05-20T10:15:42;97435.25;;;26.45;46.63
21361;BME280;10839;43.206;23.550;2023-05-20T10:20:49;97443.75;;;26.15;46.34
21361;BME280;10839;43.206;23.550;2023-05-20T10:23:28;97446.19;;;26.22;45.33
21361;BME280;10839;43.206;23.550;2023-05-20T10:25:57;97433.28;;;25.64;47.01
21361;BME280;10839;43.206;23.550;2023-05-20T10:28:36;97442.00;;;25.86;46.72
21361;BME280;10839;43.206;23.550;2023-05-20T10:31:13;97439.38;;;27.05;44.36
21361;BME280;10839;43.206;23.550;2023-05-20T10:33:45;97439.16;;;26.01;46.32
21361;BME280;10839;43.206;23.550;2023-05-20T10:36:27;97447.00;;;25.79;47.71
21361;BME280;10839;43.206;23.550;2023-05-20T10:38:55;97447.81;;;25.10;47.43
21361;BME280;10839;43.206;23.550;2023-05-20T10:41:24;97444.56;;;24.93;48.07
21361;BME280;10839;43.206;23.550;2023-05-20T10:44:01;97452.00;;;24.58;48.57
21361;BME280;10839;43.206;23.550;2023-05-20T10:46:28;97442.94;;;24.07;48.69
21361;BME280;10839;43.206;23.550;2023-05-20T10:48:55;97445.16;;;24.25;49.21
21361;BME280;10839;43.206;23.550;2023-05-20T10:51:21;97442.94;;;24.12;49.86
21361;BME280;10839;43.206;23.550;2023-05-20T10:53:47;97445.44;;;23.27;50.97
21361;BME280;10839;43.206;23.550;2023-05-20T10:56:19;97443.59;;;23.57;50.24
21361;BME280;10839;43.206;23.550;2023-05-20T10:58:46;97445.41;;;24.04;50.50
21361;BME280;10839;43.206;23.550;2023-05-20T11:01:13;97440.84;;;23.57;50.35
21361;BME280;10839;43.206;23.550;2023-05-20T11:03:39;97430.09;;;23.41;49.89
21361;BME280;10839;43.206;23.550;2023-05-20T11:06:13;97430.16;;;23.66;49.92
21361;BME280;10839;43.206;23.550;2023-05-20T11:08:39;97429.19;;;24.12;49.80
21361;BME280;10839;43.206;23.550;2023-05-20T11:11:06;97439.56;;;23.90;50.32
21361;BME280;10839;43.206;23.550;2023-05-20T11:13:32;97433.72;;;23.56;52.64
21361;BME280;10839;43.206;23.550;2023-05-20T11:15:59;97425.81;;;23.75;53.31
21361;BME280;10839;43.206;23.550;2023-05-20T11:18:26;97420.94;;;24.02;52.82
21361;BME280;10839;43.206;23.550;2023-05-20T11:20:55;97424.75;;;24.66;52.05
21361;BME280;10839;43.206;23.550;2023-05-20T11:23:21;97433.59;;;24.38;53.65
21361;BME280;10839;43.206;23.550;2023-05-20T11:25:51;97412.63;;;23.77;54.10
21361;BME280;10839;43.206;23.550;2023-05-20T11:28:21;97411.50;;;23.68;55.44
21361;BME280;10839;43.206;23.550;2023-05-20T11:30:47;97401.69;;;24.27;53.79
21361;BME280;10839;43.206;23.550;2023-05-20T11:33:17;97409.34;;;23.95;53.59
21361;BME280;10839;43.206;23.550;2023-05-20T11:35:47;97412.41;;;24.54;51.21
21361;BME280;10839;43.206;23.550;2023-05-20T11:38:15;97407.13;;;23.87;50.32
21361;BME280;10839;43.206;23.550;2023-05-20T11:40:52;97398.88;;;23.82;51.71
21361;BME280;10839;43.206;23.550;2023-05-20T11:43:19;97403.16;;;23.38;49.47
21361;BME280;10839;43.206;23.550;2023-05-20T11:45:46;97388.59;;;22.75;49.76
21361;BME280;10839;43.206;23.550;2023-05-20T11:48:12;97376.41;;;23.13;49.35
21361;BME280;10839;43.206;23.550;2023-05-20T11:50:42;97379.94;;;23.04;50.07
21361;BME280;10839;43.206;23.550;2023-05-20T11:53:09;97390.31;;;23.53;49.49
21361;BME280;10839;43.206;23.550;2023-05-20T11:55:51;97389.78;;;23.00;50.73
21361;BME280;10839;43.206;23.550;2023-05-20T11:58:20;97379.63;;;23.67;49.80
21361;BME280;10839;43.206;23.550;2023-05-20T12:00:47;97365.91;;;23.82;48.90
21361;BME280;10839;43.206;23.550;2023-05-20T12:03:13;97385.72;;;24.04;48.36
21361;BME280;10839;43.206;23.550;2023-05-20T12:05:39;97366.44;;;23.69;46.59
21361;BME280;10839;43.206;23.550;2023-05-20T12:08:05;97366.44;;;23.69;46.72
21361;BME280;10839;43.206;23.550;2023-05-20T12:10:31;97369.78;;;24.01;44.60
21361;BME280;10839;43.206;23.550;2023-05-20T12:12:57;97349.66;;;23.60;43.71
21361;BME280;10839;43.206;23.550;2023-05-20T12:15:23;97348.22;;;23.38;44.34
21361;BME280;10839;43.206;23.550;2023-05-20T12:17:52;97344.44;;;23.84;44.00
21361;BME280;10839;43.206;23.550;2023-05-20T12:20:23;97352.44;;;23.80;44.98
21361;BME280;10839;43.206;23.550;2023-05-20T12:22:50;97347.69;;;23.51;45.60
21361;BME280;10839;43.206;23.550;2023-05-20T12:25:17;97347.19;;;23.64;45.20
21361;BME280;10839;43.206;23.550;2023-05-20T12:27:44;97327.94;;;23.94;44.07
21361;BME280;10839;43.206;23.550;2023-05-20T12:30:14;97368.94;;;23.85;42.48
21361;BME280;10839;43.206;23.550;2023-05-20T12:32:41;97344.41;;;23.49;43.04
21361;BME280;10839;43.206;23.550;2023-05-20T12:35:08;97338.34;;;23.32;45.57
21361;BME280;10839;43.206;23.550;2023-05-20T12:37:35;97332.91;;;23.72;44.37
21361;BME280;10839;43.206;23.550;2023-05-20T12:40:02;97341.63;;;23.34;44.99
21361;BME280;10839;43.206;23.550;2023-05-20T12:42:36;97323.19;;;23.29;44.58
21361;BME280;10839;43.206;23.550;2023-05-20T12:45:03;97314.69;;;23.31;44.45
21361;BME280;10839;43.206;23.550;2023-05-20T12:47:31;97326.22;;;23.28;44.59
21361;BME280;10839;43.206;23.550;2023-05-20T12:49:57;97299.34;;;23.55;45.02
21361;BME280;10839;43.206;23.550;2023-05-20T12:52:24;97306.75;;;23.54;43.99
21361;BME280;10839;43.206;23.550;2023-05-20T12:54:50;97301.53;;;23.53;43.82
21361;BME280;10839;43.206;23.550;2023-05-20T12:57:16;97310.34;;;23.65;43.85
21361;BME280;10839;43.206;23.550;2023-05-20T12:59:44;97294.84;;;23.09;44.05